Aviation Digital Data Service (ADDS)

Output produced by TAFs form (1506 UTC 28 August 2014)
found at http://aviationweather.gov/adds/tafs/
 
KRIL 281407Z 2814/2912 00000KT P6SM VCSH SCT011 BKN035 
     TEMPO 2814/2816 -RA FEW010 OVC050 
     FM281900 33008KT P6SM BKN090 
     FM290200 13004KT P6SM SCT100 
     FM290600 VRB03KT P6SM SKC